M I D A S
Marine Information and Data Acquisition System
Tripno 2152 of the Zeeleeuw from 2011-07-27 05:25:13 to 2011-07-27 15:18:30
Back to CruiseResearch ActivitiesStationsMapUnderway DataData graphs

EquipmentUnitsComment
TimeDGPSUTC
LatitudeDGPSDM.mWGS84
LongitudeDGPSDM.mWGS84
TemperatureSBE03/SBE38deg celciusITS90
ConductivitySBE21S/mITS90
SalinitySBE21 Practical Salinity Units
ChlorophylAChelsea fluorimeterg/lCalibrated in Aceton
Missing or incorrect values are displayed as -999
Sea surface data collected by the RV Zeeleeuw from 2011-07-27 05:26:57 to 2011-07-27 16:27:51
Time Latitude Longitude Temperature Conductivity Salinity ChlorophylA
2011-07-27 05:28:06 51°13.652 2°55.92 20.5798 0.055973 0.310104 -3.020363
2011-07-27 05:29:06 51°13.688 2°55.811 20.5855 0.056076 0.310645 -3.020363
2011-07-27 05:30:06 51°13.743 2°55.718 20.5932 0.056076 0.310606 -3.020363
2011-07-27 05:31:06 51°13.815 2°55.644 20.5946 0.056076 0.310578 -3.020363
2011-07-27 05:32:07 51°13.903 2°55.624 20.5937 0.056076 0.310556 -3.020363
2011-07-27 05:33:06 51°13.963 2°55.649 20.5888 0.056076 0.310534 -3.020363
2011-07-27 05:34:06 51°13.961 2°55.623 20.543 0.056076 0.310467 -3.020363
2011-07-27 05:35:05 51°14.005 2°55.534 20.6098 0.056076 0.310523 -3.020363
2011-07-27 05:36:05 51°14.133 2°55.416 20.5849 0.056076 0.310495 -3.020363
2011-07-27 05:37:03 51°14.279 2°55.282 20.5953 0.056076 0.310483 -3.020363
2011-07-27 05:38:03 51°14.436 2°55.128 20.5751 0.056076 0.310478 -3.020363
2011-07-27 05:39:03 51°14.592 2°54.936 20.5387 0.056076 0.310461 -3.020363
2011-07-27 05:40:03 51°14.754 2°54.737 20.5487 0.056076 0.310472 -3.020363
2011-07-27 05:41:03 51°14.918 2°54.544 20.5193 0.056076 0.310467 -3.020363
2011-07-27 05:42:02 51°15.074 2°54.346 20.5321 0.056076 0.310456 -3.020363
2011-07-27 05:43:03 51°15.233 2°54.135 20.5305 0.056076 0.31045 -3.020363
2011-07-27 05:44:02 51°15.39 2°53.94 20.5312 0.056076 0.310444 -3.020363
2011-07-27 05:45:03 51°15.549 2°53.731 20.5231 0.056076 0.310439 -3.020363
2011-07-27 05:46:03 51°15.715 2°53.547 20.5305 0.056076 0.310433 -3.020363
2011-07-27 05:47:03 51°15.896 2°53.416 20.5502 0.056076 0.310444 -3.020363
2011-07-27 05:48:03 51°16.074 2°53.274 20.552 0.056076 0.310416 -3.020363
2011-07-27 05:49:02 51°16.252 2°53.141 20.5539 0.056076 0.310416 -3.020363
2011-07-27 05:50:02 51°16.432 2°53.012 20.5632 0.056076 0.310416 -3.020363
2011-07-27 05:51:02 51°16.606 2°52.857 20.56 0.056179 0.310991 -3.020363
2011-07-27 05:52:03 51°16.785 2°52.715 20.5761 0.056179 0.310991 -3.020363
2011-07-27 05:53:02 51°16.961 2°52.592 20.5799 0.056179 0.310991 -3.020363
2011-07-27 05:54:02 51°17.131 2°52.445 20.5855 0.056179 0.310985 -3.020363
2011-07-27 05:55:02 51°17.309 2°52.319 20.5991 0.056076 0.3104 -3.020363
2011-07-27 05:56:03 51°17.488 2°52.177 20.5944 0.056179 0.310985 -3.020363
2011-07-27 05:57:02 51°17.661 2°52.045 20.604 0.056179 0.310979 -3.020363
2011-07-27 05:58:02 51°17.832 2°51.896 20.6136 0.056179 0.310979 -3.020363
2011-07-27 05:59:03 51°17.973 2°51.67 20.6204 0.056179 0.310974 -3.020363
2011-07-27 06:00:03 51°18.111 2°51.435 20.6352 0.056179 0.310979 -3.020363
2011-07-27 06:01:02 51°18.256 2°51.218 20.6488 0.056179 0.310974 -3.020363
2011-07-27 06:02:02 51°18.405 2°50.999 20.6557 0.056179 0.310968 -3.020363
2011-07-27 06:03:03 51°18.55 2°50.765 20.663 0.056179 0.310968 -3.020363
2011-07-27 06:04:03 51°18.698 2°50.548 20.6725 0.056179 0.310963 -3.020363
2011-07-27 06:05:02 51°18.84 2°50.325 20.6763 0.056179 0.310968 -3.020363
2011-07-27 06:06:03 51°18.986 2°50.097 20.6899 0.056179 0.310957 -3.020363
2011-07-27 06:07:03 51°19.137 2°49.886 20.7023 0.056179 0.310957 -3.020363
2011-07-27 06:08:03 51°19.273 2°49.645 20.7087 0.056179 0.310951 -3.020363
2011-07-27 06:09:02 51°19.403 2°49.407 20.7124 0.056179 0.31094 -3.020363
2011-07-27 06:10:03 51°19.543 2°49.162 20.7246 0.056179 0.310951 -3.020363
2011-07-27 06:11:03 51°19.678 2°48.914 20.7315 0.056179 0.310946 -3.020363
2011-07-27 06:12:02 51°19.811 2°48.665 20.7417 0.056179 0.31094 -3.020363
2011-07-27 06:13:02 51°19.947 2°48.417 20.7584 0.056179 0.310935 -3.020363
2011-07-27 06:14:03 51°20.09 2°48.172 20.7674 0.056179 0.310935 -3.020363
2011-07-27 06:15:01 51°20.216 2°47.932 20.7761 0.056179 0.310929 -3.020363
2011-07-27 06:16:02 51°20.352 2°47.682 20.7882 0.056179 0.310935 -3.020363
2011-07-27 06:17:03 51°20.487 2°47.43 20.8045 0.056179 0.310924 -3.020363
2011-07-27 06:18:02 51°20.615 2°47.18 20.8109 0.056179 0.310924 -3.020363
2011-07-27 06:19:03 51°20.757 2°46.934 20.8139 0.056179 0.310924 -3.020363
2011-07-27 06:20:03 51°20.888 2°46.676 20.8324 0.056179 0.310924 -3.020363
2011-07-27 06:21:02 51°21.001 2°46.4 20.8315 0.056179 0.310912 -3.020363
2011-07-27 06:22:02 51°21.126 2°46.135 20.8484 0.056179 0.310918 -3.020363
2011-07-27 06:23:03 51°21.272 2°45.898 20.8565 0.056179 0.310918 -3.020363
2011-07-27 06:24:03 51°21.421 2°45.676 20.8654 0.056179 0.310912 -3.020363
2011-07-27 06:25:02 51°21.572 2°45.47 20.8848 0.056179 0.310907 -3.020363
2011-07-27 06:26:03 51°21.725 2°45.251 20.8802 0.056179 0.310907 -3.020363
2011-07-27 06:27:03 51°21.872 2°45.03 20.9001 0.056179 0.310901 -3.020363
2011-07-27 06:28:03 51°22.026 2°44.823 20.912 0.056179 0.310907 -3.020363
2011-07-27 06:29:02 51°22.17 2°44.608 20.9251 0.056282 0.311486 -3.020363
2011-07-27 06:30:03 51°22.314 2°44.377 20.9262 0.056179 0.310896 -3.020363
2011-07-27 06:31:01 51°22.453 2°44.159 20.9384 0.056179 0.310896 -3.020363
2011-07-27 06:32:03 51°22.599 2°43.922 20.9597 0.056179 0.310884 -3.020363
2011-07-27 06:33:03 51°22.716 2°43.712 20.9743 0.056179 0.31089 -3.020363
2011-07-27 06:34:03 51°22.742 2°43.478 20.9724 0.056179 0.31089 -3.020363
2011-07-27 06:35:03 51°22.74 2°43.339 20.9935 0.056179 0.31089 -3.020363
2011-07-27 06:36:05 51°22.718 2°43.339 20.9992 0.056282 0.31147 -3.020363
2011-07-27 06:37:05 51°22.699 2°43.352 21.0096 0.056282 0.311486 -3.020363
2011-07-27 06:38:04 51°22.685 2°43.366 21.0036 0.056179 0.310896 -3.020363
2011-07-27 06:39:06 51°22.668 2°43.367 21.0273 0.056179 0.310907 -3.020363
2011-07-27 06:40:04 51°22.643 2°43.329 21.0381 0.056179 0.310924 -3.020363
2011-07-27 06:41:03 51°22.653 2°43.248 21.0426 0.056179 0.310951 -3.020363
2011-07-27 06:42:03 51°22.69 2°43.245 21.0581 0.056282 0.311537 -3.020363
2011-07-27 06:43:02 51°22.723 2°43.289 21.082 0.056179 0.310968 -3.020363
2011-07-27 06:44:03 51°22.727 2°43.3 21.093 0.056179 0.310974 -3.020363
2011-07-27 06:45:03 51°22.722 2°43.315 21.0957 0.056179 0.310963 -3.020363
2011-07-27 06:46:03 51°22.72 2°43.336 21.1099 0.056179 0.310951 -3.020363
2011-07-27 06:47:02 51°22.71 2°43.351 21.1238 0.056179 0.310924 -3.020363
2011-07-27 06:48:02 51°22.699 2°43.365 21.1227 0.056282 0.311475 -3.020363
2011-07-27 06:49:03 51°22.685 2°43.373 21.1424 0.056282 0.311436 -3.020363
2011-07-27 06:50:02 51°22.668 2°43.376 21.1505 0.056282 0.311391 -3.020363
2011-07-27 06:51:03 51°22.653 2°43.387 21.1682 0.056282 0.311352 -3.020363
2011-07-27 06:52:02 51°22.668 2°43.415 21.1855 0.056282 0.311313 -3.020363
2011-07-27 06:53:03 51°22.703 2°43.393 21.1891 0.056282 0.311251 -3.020363
2011-07-27 06:54:02 51°22.73 2°43.357 21.2035 0.056282 0.311201 -3.020363
2011-07-27 06:55:05 51°22.719 2°43.347 21.2024 0.056282 0.311134 -3.020363
2011-07-27 06:56:06 51°22.699 2°43.347 21.2172 0.056282 0.311062 -3.020363
2011-07-27 06:57:05 51°22.681 2°43.348 21.2293 0.056282 0.310984 -3.020363
2011-07-27 06:58:02 51°22.664 2°43.35 21.2382 0.056282 0.310906 -3.020363
2011-07-27 06:59:02 51°22.644 2°43.349 21.2513 0.056282 0.310855 -3.020363
2011-07-27 07:00:03 51°22.623 2°43.314 21.2576 0.056282 0.310822 -3.020363
2011-07-27 07:01:02 51°22.63 2°43.253 21.2715 0.056385 0.311372 -3.020363
2011-07-27 07:02:02 51°22.647 2°43.234 21.2947 0.056385 0.311339 -3.020363
2011-07-27 07:03:02 51°22.645 2°43.24 21.3044 0.056385 0.311328 -3.020363
2011-07-27 07:04:02 51°22.634 2°43.248 21.2959 0.056385 0.311311 -3.020363
2011-07-27 07:05:02 51°22.625 2°43.262 21.3149 0.056385 0.311294 -3.020363
2011-07-27 07:06:02 51°22.623 2°43.284 21.3125 0.056385 0.311278 -3.020363
2011-07-27 07:07:02 51°22.632 2°43.304 21.3412 0.056385 0.311261 -3.020363
2011-07-27 07:08:02 51°22.637 2°43.323 21.3507 0.056385 0.311261 -3.020363
2011-07-27 07:09:03 51°22.632 2°43.335 21.3632 0.056385 0.31125 -3.020363
2011-07-27 07:10:02 51°22.62 2°43.346 21.3766 0.056385 0.31125 -3.020363
2011-07-27 07:11:02 51°22.612 2°43.366 21.383 0.056385 0.311239 -3.020363
2011-07-27 07:12:02 51°22.616 2°43.392 21.3921 0.056385 0.311227 -3.020363
2011-07-27 07:13:02 51°22.621 2°43.408 21.3962 0.056385 0.311205 -3.020363
2011-07-27 07:14:02 51°22.617 2°43.42 21.4038 0.056385 0.311166 -3.020363
2011-07-27 07:15:02 51°22.617 2°43.431 21.4181 0.056385 0.31115 -3.020363
2011-07-27 07:16:02 51°22.626 2°43.43 21.4275 0.056385 0.311122 -3.020363
2011-07-27 07:17:02 51°22.622 2°43.431 21.4466 0.056487 0.311672 -3.020363
2011-07-27 07:18:03 51°22.607 2°43.437 21.4522 0.056487 0.311649 -3.020363
2011-07-27 07:19:02 51°22.585 2°43.449 21.4515 0.056487 0.311638 -3.020363
2011-07-27 07:20:03 51°22.575 2°43.437 21.4703 0.056487 0.31161 -3.020363
2011-07-27 07:21:02 51°22.591 2°43.409 21.4819 0.056487 0.311605 -3.020363
2011-07-27 07:22:02 51°22.606 2°43.409 21.4899 0.056487 0.311594 -3.020363
2011-07-27 07:23:02 51°22.607 2°43.423 21.4934 0.056487 0.311577 -3.020363
2011-07-27 07:24:02 51°22.603 2°43.44 21.5158 0.056487 0.31156 -3.020363
2011-07-27 07:25:02 51°22.614 2°43.458 21.5265 0.056487 0.311543 -3.020363
2011-07-27 07:26:02 51°22.623 2°43.456 21.5297 0.056487 0.311521 -3.020363
2011-07-27 07:27:02 51°22.628 2°43.443 21.5437 0.056487 0.311504 -3.020363
2011-07-27 07:28:02 51°22.63 2°43.426 21.5437 0.056487 0.311499 -3.020363
2011-07-27 07:29:02 51°22.635 2°43.418 21.5662 0.056487 0.311488 -3.020363
2011-07-27 07:30:02 51°22.649 2°43.455 21.5722 0.056487 0.311477 -3.020363
2011-07-27 07:31:02 51°22.63 2°43.534 21.5715 0.056487 0.31146 -3.020363
2011-07-27 07:32:02 51°22.573 2°43.555 21.579 0.056487 0.311426 -3.020363
2011-07-27 07:33:02 51°22.533 2°43.5 21.59 0.056487 0.311432 -3.020363
2011-07-27 07:34:03 51°22.549 2°43.425 21.6001 0.056487 0.311415 -3.020363
2011-07-27 07:35:02 51°22.567 2°43.401 21.6123 0.056487 0.311415 -3.020363
2011-07-27 07:36:02 51°22.57 2°43.396 21.6392 0.056487 0.31141 -3.020363
2011-07-27 07:37:02 51°22.563 2°43.398 21.6457 0.056487 0.311399 -3.020363
2011-07-27 07:38:02 51°22.55 2°43.403 21.6406 0.056487 0.311387 -3.020363
2011-07-27 07:39:02 51°22.553 2°43.391 21.6549 0.056487 0.311376 -3.020363
2011-07-27 07:40:02 51°22.569 2°43.379 21.674 0.056487 0.311371 -3.020363
2011-07-27 07:41:02 51°22.575 2°43.385 21.6747 0.056487 0.31136 -3.020363
2011-07-27 07:42:02 51°22.584 2°43.41 21.679 0.05659 0.311948 -3.020363
2011-07-27 07:43:03 51°22.602 2°43.442 21.6852 0.05659 0.311931 -3.020363
2011-07-27 07:44:02 51°22.605 2°43.467 21.7007 0.05659 0.311915 -3.020363
2011-07-27 07:45:03 51°22.606 2°43.495 21.7141 0.05659 0.311909 -3.020363
2011-07-27 07:46:02 51°22.62 2°43.519 21.7271 0.05659 0.311909 -3.020363
2011-07-27 07:47:02 51°22.634 2°43.517 21.7256 0.05659 0.311892 -3.020363
2011-07-27 07:48:02 51°22.629 2°43.515 21.7409 0.05659 0.311881 -3.020363
2011-07-27 07:49:02 51°22.621 2°43.503 21.7478 0.05659 0.311887 -3.020363
2011-07-27 07:50:02 51°22.63 2°43.474 21.7499 0.05659 0.311887 -3.020363
2011-07-27 07:51:02 51°22.633 2°43.465 21.7783 0.05659 0.311892 -3.020363
2011-07-27 07:52:02 51°22.626 2°43.466 21.7663 0.05659 0.311876 -3.020363
2011-07-27 07:53:02 51°22.621 2°43.455 21.7969 0.05659 0.311859 -3.020363
2011-07-27 07:54:03 51°22.621 2°43.443 21.8004 0.05659 0.311859 -3.020363
2011-07-27 07:55:02 51°22.617 2°43.445 21.8189 0.05659 0.311859 -3.020363
2011-07-27 07:56:02 51°22.608 2°43.453 21.8129 0.05659 0.311853 -3.020363
2011-07-27 07:57:02 51°22.597 2°43.463 21.833 0.05659 0.311842 -3.020363
2011-07-27 07:58:02 51°22.604 2°43.456 21.8275 0.05659 0.311837 -3.020363
2011-07-27 07:59:02 51°22.623 2°43.447 21.8412 0.05659 0.311831 -3.020363
2011-07-27 08:00:02 51°22.631 2°43.446 21.8642 0.05659 0.31182 -3.020363
2011-07-27 08:01:02 51°22.631 2°43.451 21.8699 0.056693 0.312397 -3.020363
2011-07-27 08:02:02 51°22.622 2°43.462 21.8674 0.056693 0.312397 -3.020363
2011-07-27 08:03:02 51°22.616 2°43.451 21.865 0.056693 0.31238 -3.020363
2011-07-27 08:04:02 51°22.612 2°43.438 21.8806 0.056693 0.312375 -3.020363
2011-07-27 08:05:02 51°22.615 2°43.426 21.9036 0.056693 0.312369 -3.020363
2011-07-27 08:06:02 51°22.617 2°43.424 21.9 0.056693 0.312369 -3.020363
2011-07-27 08:07:02 51°22.61 2°43.435 21.916 0.056693 0.312358 -3.020363
2011-07-27 08:08:02 51°22.599 2°43.452 21.9184 0.056693 0.312347 -3.020363
2011-07-27 08:09:02 51°22.599 2°43.454 21.9125 0.056693 0.312341 -3.020363
2011-07-27 08:10:03 51°22.611 2°43.455 21.9431 0.056693 0.312336 -3.020363
2011-07-27 08:11:02 51°22.618 2°43.469 21.9463 0.056693 0.312336 -3.020363
2011-07-27 08:12:03 51°22.626 2°43.487 21.9575 0.056693 0.312324 -3.020363
2011-07-27 08:13:02 51°22.625 2°43.506 21.9637 0.056693 0.312319 -3.020363
2011-07-27 08:14:03 51°22.619 2°43.53 21.9578 0.056693 0.312313 -3.020363
2011-07-27 08:15:02 51°22.608 2°43.553 21.978 0.056693 0.312302 -3.020363
2011-07-27 08:16:02 51°22.593 2°43.578 21.9778 0.056693 0.312302 -3.020363
2011-07-27 08:17:02 51°22.607 2°43.576 21.9868 0.056693 0.312285 -3.020363
2011-07-27 08:18:02 51°22.618 2°43.557 21.9962 0.056693 0.312274 -3.020363
2011-07-27 08:19:03 51°22.626 2°43.54 22.0034 0.056693 0.312269 -3.020363
2011-07-27 08:20:02 51°22.628 2°43.537 22.0195 0.056693 0.312269 -3.020363
2011-07-27 08:21:02 51°22.624 2°43.544 22.0179 0.056693 0.312257 -3.020363
2011-07-27 08:22:02 51°22.619 2°43.548 22.0258 0.056796 0.312829 -3.020363
2011-07-27 08:23:02 51°22.615 2°43.542 22.0352 0.056796 0.312823 -3.020363
2011-07-27 08:24:02 51°22.617 2°43.53 22.0454 0.056796 0.312818 -3.020363
2011-07-27 08:25:02 51°22.619 2°43.529 22.0532 0.056796 0.312818 -3.020363
2011-07-27 08:26:02 51°22.62 2°43.534 22.0674 0.056796 0.312812 -3.020363
2011-07-27 08:27:02 51°22.614 2°43.551 22.0777 0.056796 0.312812 -3.020363
2011-07-27 08:28:03 51°22.606 2°43.566 22.0677 0.056796 0.312801 -3.020363
2011-07-27 08:29:02 51°22.609 2°43.558 22.0795 0.056796 0.31279 -3.020363
2011-07-27 08:30:03 51°22.629 2°43.55 22.1007 0.056796 0.31279 -3.020363
2011-07-27 08:31:02 51°22.635 2°43.561 22.0919 0.056796 0.312801 -3.020363
2011-07-27 08:32:05 51°22.619 2°43.591 22.1083 0.056796 0.312784 -3.020363
2011-07-27 08:33:04 51°22.601 2°43.622 22.1121 0.056796 0.312778 -3.020363
2011-07-27 08:34:02 51°22.594 2°43.64 22.1297 0.056796 0.312773 -3.020363
2011-07-27 08:35:03 51°22.607 2°43.602 22.1386 0.056796 0.312762 -3.020363
2011-07-27 08:36:02 51°22.639 2°43.543 22.1292 0.056796 0.312762 -3.020363
2011-07-27 08:37:03 51°22.659 2°43.521 22.1523 0.056796 0.312756 -3.020363
2011-07-27 08:38:02 51°22.658 2°43.535 22.1372 0.056796 0.312756 -3.020363
2011-07-27 08:39:03 51°22.65 2°43.56 22.1556 0.056796 0.312739 -3.020363
2011-07-27 08:40:02 51°22.646 2°43.573 22.1711 0.056796 0.312734 -3.020363
2011-07-27 08:41:02 51°22.649 2°43.535 22.1758 0.056796 0.312734 -3.020363
2011-07-27 08:42:02 51°22.654 2°43.517 22.1787 0.056796 0.312728 -3.020363
2011-07-27 08:43:06 51°22.645 2°43.561 22.1999 0.056796 0.312723 -3.020363
2011-07-27 08:44:05 51°22.626 2°43.552 22.2032 0.056796 0.312745 -3.020363
2011-07-27 08:45:03 51°22.581 2°43.604 22.2211 0.056796 0.312723 -3.020363
2011-07-27 08:46:02 51°22.567 2°43.702 22.2033 0.056899 0.313299 -3.020363
2011-07-27 08:47:02 51°22.568 2°43.79 22.2265 0.056899 0.313316 -3.020363
2011-07-27 08:48:03 51°22.571 2°43.865 22.2299 0.056899 0.313322 -3.020363
2011-07-27 08:49:02 51°22.614 2°43.933 22.2606 0.056899 0.313338 -3.020363
2011-07-27 08:50:03 51°22.65 2°43.878 22.2301 0.056899 0.313327 -3.020363
2011-07-27 08:51:02 51°22.655 2°43.763 22.2379 0.056899 0.313322 -3.020363
2011-07-27 08:52:02 51°22.656 2°43.652 22.2577 0.056796 0.312751 -3.020363
2011-07-27 08:53:03 51°22.659 2°43.571 22.2679 0.056899 0.313344 -3.020363
2011-07-27 08:54:02 51°22.659 2°43.543 22.2741 0.056899 0.313355 -3.020363
2011-07-27 08:55:03 51°22.656 2°43.541 22.2773 0.056899 0.313355 -3.020363
2011-07-27 08:56:02 51°22.649 2°43.553 22.2989 0.056899 0.313361 -3.020363
2011-07-27 08:57:03 51°22.642 2°43.557 22.2843 0.056899 0.313366 -3.020363
2011-07-27 08:58:02 51°22.639 2°43.533 22.2833 0.056899 0.313378 -3.020363
2011-07-27 08:59:03 51°22.639 2°43.513 22.2997 0.056899 0.313389 -3.020363
2011-07-27 09:00:02 51°22.64 2°43.478 22.303 0.056899 0.313394 -3.020363
2011-07-27 09:01:02 51°22.642 2°43.42 22.3073 0.056899 0.313406 -3.020363
2011-07-27 09:02:02 51°22.642 2°43.356 22.3191 0.056899 0.313406 -3.020363
2011-07-27 09:03:03 51°22.615 2°43.314 22.3176 0.056899 0.313456 -3.020363
2011-07-27 09:04:03 51°22.571 2°43.365 22.3421 0.056796 0.312862 -3.020363
2011-07-27 09:05:02 51°22.568 2°43.469 22.3334 0.056899 0.313439 -3.020363
2011-07-27 09:06:03 51°22.581 2°43.562 22.346 0.056899 0.313467 -3.020363
2011-07-27 09:07:02 51°22.605 2°43.642 22.3673 0.056899 0.313489 -3.020363
2011-07-27 09:08:03 51°22.676 2°43.733 22.368 0.056899 0.313495 -3.020363
2011-07-27 09:09:03 51°22.78 2°43.8 22.3606 0.056899 0.313506 -3.020363
2011-07-27 09:10:03 51°22.891 2°43.833 22.3957 0.056899 0.313501 -3.020363
2011-07-27 09:11:03 51°23.009 2°43.837 22.3943 0.056796 0.31294 -3.020363
2011-07-27 09:12:02 51°23.128 2°43.842 22.3911 0.056899 0.313534 -3.020363
2011-07-27 09:13:03 51°23.252 2°43.851 22.4001 0.056796 0.312946 -3.020363
2011-07-27 09:14:02 51°23.369 2°43.826 22.3977 0.056796 0.31294 -3.020363
2011-07-27 09:15:03 51°23.488 2°43.775 22.4041 0.056899 0.313501 -3.020363
2011-07-27 09:16:02 51°23.604 2°43.74 22.4263 0.056899 0.313478 -3.020363
2011-07-27 09:17:03 51°23.727 2°43.725 22.4386 0.056899 0.313445 -3.020363
2011-07-27 09:18:02 51°23.842 2°43.701 22.4342 0.056899 0.3134 -3.020363
2011-07-27 09:19:02 51°23.963 2°43.67 22.4229 0.056899 0.313344 -3.020363
2011-07-27 09:20:02 51°24.087 2°43.652 22.4435 0.056899 0.313282 -3.020363
2011-07-27 09:21:01 51°24.213 2°43.653 22.445 0.056899 0.313221 -3.020363
2011-07-27 09:22:02 51°24.328 2°43.659 22.4521 0.056899 0.313148 -3.020363
2011-07-27 09:23:02 51°24.399 2°43.672 22.4597 0.056899 0.313065 -3.020363
2011-07-27 09:24:02 51°24.448 2°43.679 22.4662 0.057001 0.313546 -3.020363
2011-07-27 09:25:02 51°24.49 2°43.672 22.4742 0.057001 0.313456 -3.020363
2011-07-27 09:26:02 51°24.534 2°43.674 22.4721 0.057001 0.313367 -3.020363
2011-07-27 09:27:01 51°24.577 2°43.68 22.4733 0.057001 0.313283 -3.020363
2011-07-27 09:28:02 51°24.595 2°43.686 22.4807 0.057001 0.3132 -3.020363
2011-07-27 09:29:01 51°24.602 2°43.689 22.4904 0.057001 0.313133 -3.020363
2011-07-27 09:30:01 51°24.607 2°43.689 22.5097 0.057104 0.313658 -3.020363
2011-07-27 09:31:02 51°24.632 2°43.667 22.5066 0.057104 0.31363 -3.020363
2011-07-27 09:32:01 51°24.651 2°43.673 22.5143 0.057104 0.313597 -3.020363
2011-07-27 09:33:03 51°24.66 2°43.689 22.5201 0.057104 0.313569 -3.020363
2011-07-27 09:34:02 51°24.665 2°43.707 22.5298 0.057104 0.313547 -3.020363
2011-07-27 09:35:02 51°24.669 2°43.72 22.5309 0.057104 0.313513 -3.020363
2011-07-27 09:36:02 51°24.668 2°43.739 22.5208 0.057104 0.313491 -3.020363
2011-07-27 09:37:02 51°24.666 2°43.763 22.5339 0.057104 0.313469 -3.020363
2011-07-27 09:38:03 51°24.665 2°43.791 22.5524 0.057207 0.314021 -3.020363
2011-07-27 09:39:01 51°24.663 2°43.768 22.5426 0.057207 0.314004 -3.020363
2011-07-27 09:40:02 51°24.675 2°43.712 22.5486 0.057207 0.313965 -3.020363
2011-07-27 09:41:01 51°24.672 2°43.692 22.5829 0.057207 0.313932 -3.020363
2011-07-27 09:42:01 51°24.671 2°43.699 22.5732 0.057207 0.313893 -3.020363
2011-07-27 09:43:02 51°24.671 2°43.718 22.5632 0.057207 0.313831 -3.020363
2011-07-27 09:44:01 51°24.671 2°43.74 22.5733 0.057207 0.313776 -3.020363
2011-07-27 09:45:01 51°24.671 2°43.764 22.5826 0.057207 0.313709 -3.020363
2011-07-27 09:46:01 51°24.67 2°43.762 22.5848 0.057207 0.313648 -3.020363
2011-07-27 09:47:02 51°24.671 2°43.726 22.5866 0.057207 0.313598 -3.020363
2011-07-27 09:48:01 51°24.675 2°43.697 22.6102 0.057207 0.31352 -3.020363
2011-07-27 09:49:02 51°24.677 2°43.702 22.6165 0.05731 0.314038 -3.020363
2011-07-27 09:50:02 51°24.68 2°43.717 22.6062 0.05731 0.313966 -3.020363
2011-07-27 09:51:02 51°24.679 2°43.734 22.6146 0.05731 0.313927 -3.020363
2011-07-27 09:52:01 51°24.678 2°43.757 22.6192 0.05731 0.313877 -3.020363
2011-07-27 09:53:02 51°24.676 2°43.778 22.6394 0.05731 0.313815 -3.020363
2011-07-27 09:54:02 51°24.67 2°43.758 22.6429 0.05731 0.313749 -3.020363
2011-07-27 09:55:02 51°24.67 2°43.716 22.6351 0.05731 0.313693 -3.020363
2011-07-27 09:56:03 51°24.675 2°43.69 22.6545 0.05731 0.313616 -3.020363
2011-07-27 09:57:02 51°24.679 2°43.69 22.6418 0.05731 0.313549 -3.020363
2011-07-27 09:58:02 51°24.682 2°43.699 22.6585 0.057413 0.314044 -3.020363
2011-07-27 09:59:01 51°24.684 2°43.716 22.6598 0.057413 0.313972 -3.020363
2011-07-27 10:00:02 51°24.683 2°43.74 22.6571 0.057413 0.313894 -3.020363
2011-07-27 10:01:02 51°24.683 2°43.769 22.6768 0.057413 0.313789 -3.020363
2011-07-27 10:02:01 51°24.683 2°43.795 22.6755 0.057413 0.313689 -3.020363
2011-07-27 10:03:02 51°24.668 2°43.785 22.6777 0.057413 0.313612 -3.020363
2011-07-27 10:04:02 51°24.664 2°43.742 22.6967 0.057413 0.31354 -3.020363
2011-07-27 10:05:02 51°24.664 2°43.709 22.7147 0.057515 0.314034 -3.020363
2011-07-27 10:06:02 51°24.665 2°43.7 22.7069 0.057515 0.313951 -3.020363
2011-07-27 10:07:03 51°24.667 2°43.7 22.7157 0.057515 0.313907 -3.020363
2011-07-27 10:08:02 51°24.67 2°43.706 22.7103 0.057515 0.313873 -3.020363
2011-07-27 10:09:02 51°24.672 2°43.72 22.7204 0.057515 0.313824 -3.020363
2011-07-27 10:10:02 51°24.671 2°43.742 22.7172 0.057515 0.313801 -3.020363
2011-07-27 10:11:03 51°24.671 2°43.762 22.7366 0.057515 0.313785 -3.020363
2011-07-27 10:12:02 51°24.67 2°43.752 22.7382 0.057515 0.313774 -3.020363
2011-07-27 10:13:02 51°24.672 2°43.722 22.7404 0.057515 0.313763 -3.020363
2011-07-27 10:14:03 51°24.669 2°43.701 22.7396 0.057515 0.313746 -3.020363
2011-07-27 10:15:02 51°24.67 2°43.696 22.7454 0.057618 0.314328 -3.020363
2011-07-27 10:16:02 51°24.671 2°43.704 22.7678 0.057618 0.314312 -3.020363
2011-07-27 10:17:02 51°24.672 2°43.72 22.7605 0.057618 0.314301 -3.020363
2011-07-27 10:18:03 51°24.674 2°43.736 22.7591 0.057618 0.314295 -3.020363
2011-07-27 10:19:02 51°24.673 2°43.749 22.7618 0.057618 0.314295 -3.020363
2011-07-27 10:20:02 51°24.672 2°43.761 22.782 0.057618 0.314284 -3.020363
2011-07-27 10:21:03 51°24.67 2°43.771 22.7875 0.057618 0.31429 -3.020363
2011-07-27 10:22:01 51°24.668 2°43.78 22.777 0.057618 0.31429 -3.020363
2011-07-27 10:23:02 51°24.666 2°43.785 22.7913 0.057618 0.31429 -3.020363
2011-07-27 10:24:02 51°24.663 2°43.788 22.7903 0.057618 0.314295 -3.020363
2011-07-27 10:25:03 51°24.66 2°43.787 22.8033 0.057618 0.31429 -3.020363
2011-07-27 10:26:01 51°24.657 2°43.782 22.8004 0.057618 0.31429 -3.020363
2011-07-27 10:27:02 51°24.657 2°43.733 22.8159 0.057618 0.314295 -3.020363
2011-07-27 10:28:02 51°24.67 2°43.701 22.8152 0.057618 0.314301 -3.020363
2011-07-27 10:29:01 51°24.674 2°43.712 22.8292 0.057618 0.314295 -3.020363
2011-07-27 10:30:02 51°24.674 2°43.735 22.8326 0.057618 0.31429 -3.020363
2011-07-27 10:31:02 51°24.675 2°43.759 22.8345 0.057618 0.31429 -3.020363
2011-07-27 10:32:03 51°24.675 2°43.782 22.8304 0.057618 0.31429 -3.020363
2011-07-27 10:33:01 51°24.668 2°43.764 22.8429 0.057618 0.314284 -3.020363
2011-07-27 10:34:02 51°24.663 2°43.723 22.8481 0.057618 0.314284 -3.020363
2011-07-27 10:35:02 51°24.662 2°43.702 22.8473 0.057618 0.314295 -3.020363
2011-07-27 10:36:03 51°24.665 2°43.694 22.8498 0.057618 0.314295 -3.020363
2011-07-27 10:37:02 51°24.667 2°43.7 22.8568 0.057618 0.314301 -3.020363
2011-07-27 10:38:02 51°24.668 2°43.715 22.8548 0.057618 0.314301 -3.020363
2011-07-27 10:39:02 51°24.668 2°43.736 22.8703 0.057618 0.314301 -3.020363
2011-07-27 10:40:01 51°24.669 2°43.759 22.8708 0.057618 0.314312 -3.020363
2011-07-27 10:41:02 51°24.67 2°43.786 22.8758 0.057618 0.314312 -3.020363
2011-07-27 10:42:02 51°24.666 2°43.791 22.8787 0.057618 0.314317 -3.020363
2011-07-27 10:43:03 51°24.665 2°43.751 22.879 0.057618 0.314323 -3.020363
2011-07-27 10:44:02 51°24.667 2°43.73 22.8838 0.057618 0.314323 -3.020363
2011-07-27 10:45:02 51°24.668 2°43.723 22.9035 0.057618 0.314323 -3.020363
2011-07-27 10:46:02 51°24.671 2°43.714 22.8889 0.057618 0.314295 -3.020363
2011-07-27 10:47:01 51°24.674 2°43.711 22.8991 0.057618 0.314273 -3.020363
2011-07-27 10:48:02 51°24.678 2°43.717 22.9128 0.057618 0.31424 -3.020363
2011-07-27 10:49:02 51°24.679 2°43.732 22.8973 0.057618 0.314207 -3.020363
2011-07-27 10:50:02 51°24.678 2°43.753 22.9043 0.057721 0.314728 -3.020363
2011-07-27 10:51:01 51°24.676 2°43.767 22.9127 0.057721 0.314667 -3.020363
2011-07-27 10:52:02 51°24.662 2°43.744 22.9074 0.057721 0.314606 -3.020363
2011-07-27 10:53:02 51°24.666 2°43.707 22.9157 0.057721 0.314556 -3.020363
2011-07-27 10:54:01 51°24.669 2°43.705 22.9194 0.057721 0.314484 -3.020363
2011-07-27 10:55:01 51°24.671 2°43.714 22.9373 0.057721 0.314418 -3.020363
2011-07-27 10:56:02 51°24.67 2°43.729 22.9242 0.057721 0.31434 -3.020363
2011-07-27 10:57:02 51°24.671 2°43.751 22.9327 0.057721 0.314291 -3.020363
2011-07-27 10:58:01 51°24.672 2°43.777 22.9457 0.057824 0.314817 -3.020363
2011-07-27 10:59:03 51°24.655 2°43.776 22.9423 0.057824 0.3148 -3.020363
2011-07-27 11:00:02 51°24.591 2°43.798 22.9594 0.057824 0.314745 -3.020363
2011-07-27 11:01:02 51°24.45 2°43.869 22.9564 0.057824 0.314723 -3.020363
2011-07-27 11:02:01 51°24.295 2°43.87 22.96 0.057824 0.3147 -3.020363
2011-07-27 11:03:01 51°24.154 2°43.994 22.958 0.057824 0.314634 -3.020363
2011-07-27 11:04:02 51°24.101 2°44.137 22.9586 0.057824 0.314562 -3.020363
2011-07-27 11:05:02 51°24.055 2°44.188 22.9809 0.057824 0.314551 -3.020363
2011-07-27 11:06:01 51°24.01 2°44.189 22.9668 0.057824 0.314502 -3.020363
2011-07-27 11:07:01 51°23.971 2°44.181 22.9824 0.057824 0.314457 -3.020363
2011-07-27 11:08:02 51°23.955 2°44.172 22.961 0.057824 0.314413 -3.020363
2011-07-27 11:09:02 51°23.947 2°44.172 22.9702 0.057927 0.314944 -3.020363
2011-07-27 11:10:01 51°23.943 2°44.18 22.9829 0.057927 0.314922 -3.020363
2011-07-27 11:11:02 51°23.942 2°44.192 22.9855 0.057927 0.314894 -3.020363
2011-07-27 11:12:02 51°23.944 2°44.224 22.985 0.057927 0.314883 -3.020363
2011-07-27 11:13:02 51°23.956 2°44.283 22.9948 0.057927 0.314861 -3.020363
2011-07-27 11:14:02 51°23.961 2°44.317 23.0014 0.057927 0.314856 -3.020363
2011-07-27 11:15:02 51°23.938 2°44.313 23.0036 0.057927 0.31485 -3.020363
2011-07-27 11:16:02 51°23.926 2°44.298 23.0086 0.057927 0.314839 -3.020363
2011-07-27 11:17:01 51°23.92 2°44.296 23.0193 0.057927 0.314823 -3.020363
2011-07-27 11:18:02 51°23.918 2°44.307 23.01 0.057927 0.314811 -3.020363
2011-07-27 11:19:02 51°23.918 2°44.32 23.0188 0.057927 0.314806 -3.020363
2011-07-27 11:20:02 51°23.919 2°44.334 23.0288 0.057927 0.3148 -3.020363
2011-07-27 11:21:01 51°23.919 2°44.354 23.029 0.058029 0.315369 -3.020363
2011-07-27 11:22:02 51°23.919 2°44.377 23.0275 0.058029 0.315358 -3.020363
2011-07-27 11:23:02 51°23.917 2°44.379 23.0252 0.058029 0.315369 -3.020363
2011-07-27 11:24:01 51°23.916 2°44.329 23.0347 0.058029 0.315364 -3.020363
2011-07-27 11:25:01 51°23.921 2°44.3 23.0347 0.058029 0.315364 -3.020363
2011-07-27 11:26:02 51°23.924 2°44.304 23.0396 0.058029 0.315369 -3.020363
2011-07-27 11:27:02 51°23.927 2°44.313 23.0434 0.058029 0.315375 -3.020363
2011-07-27 11:28:01 51°23.927 2°44.33 23.0513 0.058029 0.315369 -3.020363
2011-07-27 11:29:01 51°23.928 2°44.35 23.0509 0.058029 0.315369 -3.020363
2011-07-27 11:30:02 51°23.928 2°44.364 23.0582 0.058029 0.315375 -3.020363
2011-07-27 11:31:02 51°23.915 2°44.338 23.0594 0.058029 0.315369 -3.020363
2011-07-27 11:32:01 51°23.909 2°44.304 23.068 0.058029 0.315381 -3.020363
2011-07-27 11:33:03 51°23.912 2°44.296 23.0663 0.058029 0.315386 -3.020363
2011-07-27 11:34:02 51°23.914 2°44.304 23.0567 0.058029 0.315375 -3.020363
2011-07-27 11:35:02 51°23.916 2°44.316 23.0693 0.058029 0.315381 -3.020363
2011-07-27 11:36:01 51°23.916 2°44.333 23.0816 0.058029 0.315381 -3.020363
2011-07-27 11:37:03 51°23.916 2°44.344 23.0788 0.058029 0.315375 -3.020363
2011-07-27 11:38:02 51°23.917 2°44.312 23.071 0.058029 0.315386 -3.020363
2011-07-27 11:39:02 51°23.921 2°44.296 23.0893 0.058029 0.315386 -3.020363
2011-07-27 11:40:01 51°23.924 2°44.299 23.0968 0.058029 0.315386 -3.020363
2011-07-27 11:41:01 51°23.925 2°44.307 23.0894 0.058029 0.315397 -3.020363
2011-07-27 11:42:02 51°23.925 2°44.32 23.0963 0.058029 0.315392 -3.020363
2011-07-27 11:43:02 51°23.925 2°44.338 23.0974 0.058029 0.315397 -3.020363
2011-07-27 11:44:01 51°23.924 2°44.357 23.1084 0.058029 0.315392 -3.020363
2011-07-27 11:45:02 51°23.913 2°44.335 23.0906 0.058029 0.315397 -3.020363
2011-07-27 11:46:02 51°23.915 2°44.301 23.1178 0.058029 0.315414 -3.020363
2011-07-27 11:47:02 51°23.918 2°44.3 23.11 0.058029 0.315414 -3.020363
2011-07-27 11:48:01 51°23.922 2°44.304 23.1216 0.058029 0.315419 -3.020363
2011-07-27 11:49:02 51°23.925 2°44.313 23.1026 0.058029 0.31543 -3.020363
2011-07-27 11:50:02 51°23.926 2°44.323 23.1284 0.058029 0.31543 -3.020363
2011-07-27 11:51:02 51°23.927 2°44.337 23.1203 0.058029 0.315436 -3.020363
2011-07-27 11:52:02 51°23.927 2°44.352 23.1229 0.058029 0.315441 -3.020363
2011-07-27 11:53:02 51°23.928 2°44.368 23.1326 0.058029 0.315441 -3.020363
2011-07-27 11:54:02 51°23.929 2°44.383 23.1354 0.058029 0.315436 -3.020363
2011-07-27 11:55:02 51°23.928 2°44.3 23.122 0.058029 0.31543 -3.020363
2011-07-27 11:56:02 51°23.988 2°44.177 23.1282 0.058029 0.315436 -3.020363
2011-07-27 11:57:02 51°24.085 2°44.086 23.1529 0.058029 0.315419 -3.020363
2011-07-27 11:58:02 51°24.146 2°43.995 23.1583 0.058132 0.31595 -3.020363
2011-07-27 11:59:02 51°24.187 2°43.916 23.1578 0.058132 0.315883 -3.020363
2011-07-27 12:00:02 51°24.217 2°43.84 23.1544 0.058132 0.315817 -3.020363
2011-07-27 12:01:02 51°24.255 2°43.791 23.1519 0.058132 0.315745 -3.020363
2011-07-27 12:02:02 51°24.306 2°43.783 23.1673 0.058132 0.315662 -3.020363
2011-07-27 12:03:02 51°24.361 2°43.802 23.1752 0.058132 0.315568 -3.020363
2011-07-27 12:04:02 51°24.416 2°43.826 23.1742 0.058235 0.316048 -3.020363
2011-07-27 12:05:02 51°24.474 2°43.832 23.1628 0.058235 0.315948 -3.020363
2011-07-27 12:06:03 51°24.534 2°43.826 23.1811 0.058235 0.315849 -3.020363
2011-07-27 12:07:01 51°24.585 2°43.808 23.1927 0.058235 0.315755 -3.020363
2011-07-27 12:08:02 51°24.624 2°43.799 23.1886 0.058235 0.3157 -3.020363
2011-07-27 12:09:03 51°24.657 2°43.796 23.1992 0.058338 0.316201 -3.020363
2011-07-27 12:10:03 51°24.682 2°43.794 23.2001 0.058338 0.316141 -3.020363
2011-07-27 12:11:01 51°24.704 2°43.789 23.1958 0.058338 0.316063 -3.020363
2011-07-27 12:12:01 51°24.727 2°43.779 23.1887 0.058338 0.315986 -3.020363
2011-07-27 12:13:03 51°24.743 2°43.766 23.1932 0.058338 0.315876 -3.020363
2011-07-27 12:14:03 51°24.754 2°43.744 23.2093 0.058338 0.315771 -3.020363
2011-07-27 12:15:01 51°24.743 2°43.699 23.2033 0.058441 0.316228 -3.020363
2011-07-27 12:16:02 51°24.701 2°43.705 23.1995 0.058441 0.31609 -3.020363
2011-07-27 12:17:03 51°24.657 2°43.719 23.2145 0.058441 0.316024 -3.020363
2011-07-27 12:18:03 51°24.645 2°43.721 23.2114 0.058543 0.316452 -3.020363
2011-07-27 12:19:01 51°24.64 2°43.719 23.2108 0.058543 0.316309 -3.020363
2011-07-27 12:20:01 51°24.64 2°43.725 23.2111 0.058543 0.316216 -3.020363
2011-07-27 12:21:03 51°24.644 2°43.745 23.2271 0.058543 0.316133 -3.020363
2011-07-27 12:22:03 51°24.651 2°43.771 23.2308 0.058543 0.316073 -3.020363
2011-07-27 12:23:02 51°24.647 2°43.738 23.2185 0.058646 0.316633 -3.020363
2011-07-27 12:24:03 51°24.678 2°43.689 23.2336 0.058646 0.316578 -3.020363
2011-07-27 12:25:03 51°24.718 2°43.695 23.2377 0.058646 0.316534 -3.020363
2011-07-27 12:26:03 51°24.724 2°43.705 23.2536 0.058646 0.316501 -3.020363
2011-07-27 12:27:06 51°24.725 2°43.71 23.251 0.058646 0.316451 -3.020363
2011-07-27 12:28:05 51°24.715 2°43.759 23.241 0.058646 0.316424 -3.020363
2011-07-27 12:29:02 51°24.667 2°43.75 23.2338 0.058646 0.316407 -3.020363
2011-07-27 12:30:03 51°24.653 2°43.704 23.2525 0.058646 0.316341 -3.020363
2011-07-27 12:31:03 51°24.656 2°43.716 23.2549 0.058749 0.316895 -3.020363
2011-07-27 12:32:06 51°24.662 2°43.736 23.2484 0.058749 0.316868 -3.020363
2011-07-27 12:33:06 51°24.665 2°43.749 23.257 0.058749 0.316846 -3.020363
2011-07-27 12:34:03 51°24.665 2°43.758 23.2643 0.058749 0.316829 -3.020363
2011-07-27 12:35:03 51°24.662 2°43.76 23.2661 0.058749 0.316813 -3.020363
2011-07-27 12:36:03 51°24.656 2°43.744 23.269 0.058749 0.316785 -3.020363
2011-07-27 12:37:03 51°24.623 2°43.716 23.2781 0.058749 0.316791 -3.020363
2011-07-27 12:38:02 51°24.543 2°43.733 23.2603 0.058749 0.316758 -3.020363
2011-07-27 12:39:02 51°24.432 2°43.733 23.2611 0.058749 0.316741 -3.020363
2011-07-27 12:40:03 51°24.317 2°43.71 23.2751 0.058749 0.316736 -3.020363
2011-07-27 12:41:02 51°24.223 2°43.694 23.2775 0.058749 0.316708 -3.020363
2011-07-27 12:42:03 51°24.131 2°43.684 23.272 0.058749 0.316686 -3.020363
2011-07-27 12:43:02 51°24.044 2°43.685 23.2976 0.058749 0.316654 -3.020363
2011-07-27 12:44:02 51°23.955 2°43.683 23.2764 0.058852 0.317207 -3.020363
2011-07-27 12:45:02 51°23.868 2°43.671 23.2975 0.058852 0.317179 -3.020363
2011-07-27 12:46:02 51°23.781 2°43.664 23.2952 0.058852 0.317163 -3.020363
2011-07-27 12:47:02 51°23.692 2°43.661 23.2903 0.058852 0.317124 -3.020363
2011-07-27 12:48:02 51°23.609 2°43.621 23.2861 0.058852 0.317108 -3.020363
2011-07-27 12:49:02 51°23.532 2°43.575 23.2889 0.058852 0.31708 -3.020363
2011-07-27 12:50:02 51°23.461 2°43.536 23.3033 0.058852 0.317042 -3.020363
2011-07-27 12:51:03 51°23.39 2°43.502 23.2978 0.058852 0.317004 -3.020363
2011-07-27 12:52:02 51°23.321 2°43.478 23.3007 0.058852 0.316971 -3.020363
2011-07-27 12:53:02 51°23.253 2°43.451 23.2991 0.058852 0.316943 -3.020363
2011-07-27 12:54:03 51°23.185 2°43.418 23.317 0.058852 0.31691 -3.020363
2011-07-27 12:55:02 51°23.125 2°43.391 23.3069 0.058852 0.316883 -3.020363
2011-07-27 12:56:03 51°23.063 2°43.367 23.301 0.058955 0.317425 -3.020363
2011-07-27 12:57:02 51°23.006 2°43.357 23.3327 0.058955 0.317397 -3.020363
2011-07-27 12:58:02 51°22.953 2°43.37 23.3398 0.058955 0.317375 -3.020363
2011-07-27 12:59:02 51°22.906 2°43.395 23.3365 0.058955 0.317353 -3.020363
2011-07-27 13:00:03 51°22.86 2°43.408 23.3361 0.058955 0.317331 -3.020363
2011-07-27 13:01:03 51°22.819 2°43.408 23.3303 0.058955 0.317309 -3.020363
2011-07-27 13:02:02 51°22.791 2°43.401 23.3435 0.058955 0.317287 -3.020363
2011-07-27 13:03:02 51°22.773 2°43.392 23.3359 0.058955 0.317254 -3.020363
2011-07-27 13:04:02 51°22.76 2°43.386 23.3331 0.058955 0.317216 -3.020363
2011-07-27 13:05:02 51°22.76 2°43.396 23.3476 0.058955 0.317189 -3.020363
2011-07-27 13:06:02 51°22.759 2°43.406 23.3517 0.058955 0.317178 -3.020363
2011-07-27 13:07:03 51°22.758 2°43.412 23.3566 0.058955 0.317145 -3.020363
2011-07-27 13:08:02 51°22.755 2°43.416 23.3555 0.058955 0.317123 -3.020363
2011-07-27 13:09:03 51°22.752 2°43.419 23.3421 0.059057 0.317669 -3.020363
2011-07-27 13:10:02 51°22.749 2°43.422 23.3505 0.059057 0.317664 -3.020363
2011-07-27 13:11:03 51°22.745 2°43.42 23.3507 0.059057 0.317637 -3.020363
2011-07-27 13:12:03 51°22.74 2°43.405 23.3541 0.059057 0.31762 -3.020363
2011-07-27 13:13:02 51°22.738 2°43.398 23.3557 0.059057 0.317609 -3.020363
2011-07-27 13:14:06 51°22.733 2°43.416 23.3706 0.059057 0.317571 -3.020363
2011-07-27 13:15:05 51°22.713 2°43.35 23.3703 0.059057 0.317538 -3.020363
2011-07-27 13:16:03 51°22.712 2°43.335 23.383 0.059057 0.317488 -3.020363
2011-07-27 13:17:06 51°22.708 2°43.361 23.3742 0.059057 0.317445 -3.020363
2011-07-27 13:18:06 51°22.704 2°43.359 23.382 0.05916 0.31798 -3.020363
2011-07-27 13:19:04 51°22.7 2°43.328 23.3928 0.05916 0.317952 -3.020363
2011-07-27 13:20:03 51°22.701 2°43.284 23.3843 0.05916 0.317936 -3.020363
2011-07-27 13:21:02 51°22.701 2°43.258 23.3889 0.05916 0.317908 -3.020363
2011-07-27 13:22:02 51°22.701 2°43.242 23.394 0.05916 0.317887 -3.020363
2011-07-27 13:23:03 51°22.699 2°43.234 23.3948 0.05916 0.317876 -3.020363
2011-07-27 13:24:02 51°22.696 2°43.225 23.3865 0.05916 0.317881 -3.020363
2011-07-27 13:25:03 51°22.698 2°43.205 23.3921 0.05916 0.31787 -3.020363
2011-07-27 13:26:02 51°22.708 2°43.179 23.4089 0.05916 0.317865 -3.020363
2011-07-27 13:27:03 51°22.725 2°43.158 23.4001 0.05916 0.317859 -3.020363
2011-07-27 13:28:02 51°22.746 2°43.159 23.4197 0.05916 0.317854 -3.020363
2011-07-27 13:29:02 51°22.757 2°43.184 23.4024 0.05916 0.317837 -3.020363
2011-07-27 13:30:02 51°22.756 2°43.209 23.4062 0.05916 0.31781 -3.020363
2011-07-27 13:31:02 51°22.752 2°43.208 23.4212 0.05916 0.317788 -3.020363
2011-07-27 13:32:02 51°22.747 2°43.205 23.4217 0.05916 0.317771 -3.020363
2011-07-27 13:33:02 51°22.743 2°43.204 23.4195 0.059263 0.318328 -3.020363
2011-07-27 13:34:02 51°22.74 2°43.205 23.4334 0.05916 0.317744 -3.020363
2011-07-27 13:35:02 51°22.736 2°43.205 23.4195 0.05916 0.317727 -3.020363
2011-07-27 13:36:02 51°22.732 2°43.208 23.4255 0.059263 0.318284 -3.020363
2011-07-27 13:37:02 51°22.729 2°43.212 23.4292 0.059263 0.318268 -3.020363
2011-07-27 13:38:02 51°22.726 2°43.21 23.4348 0.059263 0.318251 -3.020363
2011-07-27 13:39:03 51°22.723 2°43.206 23.4373 0.059263 0.318235 -3.020363
2011-07-27 13:40:02 51°22.719 2°43.202 23.4373 0.059263 0.318235 -3.020363
2011-07-27 13:41:02 51°22.714 2°43.2 23.4502 0.059263 0.318218 -3.020363
2011-07-27 13:42:02 51°22.71 2°43.206 23.4356 0.059263 0.318213 -3.020363
2011-07-27 13:43:03 51°22.711 2°43.217 23.4495 0.059263 0.318202 -3.020363
2011-07-27 13:44:02 51°22.71 2°43.22 23.439 0.059263 0.318186 -3.020363
2011-07-27 13:45:02 51°22.708 2°43.22 23.4475 0.059263 0.318186 -3.020363
2011-07-27 13:46:02 51°22.704 2°43.22 23.4597 0.059263 0.318169 -3.020363
2011-07-27 13:47:03 51°22.701 2°43.218 23.4562 0.059263 0.318158 -3.020363
2011-07-27 13:48:02 51°22.696 2°43.216 23.458 0.059263 0.318153 -3.020363
2011-07-27 13:49:02 51°22.691 2°43.213 23.4647 0.059366 0.318709 -3.020363
2011-07-27 13:50:02 51°22.687 2°43.218 23.4578 0.059366 0.318704 -3.020363
2011-07-27 13:51:02 51°22.686 2°43.227 23.4665 0.059366 0.318698 -3.020363
2011-07-27 13:52:03 51°22.686 2°43.236 23.4648 0.059366 0.318687 -3.020363
2011-07-27 13:53:02 51°22.685 2°43.24 23.4721 0.059366 0.318693 -3.020363
2011-07-27 13:54:03 51°22.682 2°43.24 23.4638 0.059366 0.318682 -3.020363
2011-07-27 13:55:03 51°22.677 2°43.238 23.4594 0.059366 0.318671 -3.020363
2011-07-27 13:56:02 51°22.671 2°43.236 23.4856 0.059366 0.318665 -3.020363
2011-07-27 13:57:03 51°22.665 2°43.232 23.4816 0.059366 0.318649 -3.020363
2011-07-27 13:58:02 51°22.659 2°43.227 23.4808 0.059366 0.318643 -3.020363
2011-07-27 13:59:02 51°22.651 2°43.223 23.4757 0.059366 0.318638 -3.020363
2011-07-27 14:00:02 51°22.644 2°43.219 23.4779 0.059366 0.318627 -3.020363
2011-07-27 14:01:03 51°22.637 2°43.217 23.4864 0.059366 0.318621 -3.020363
2011-07-27 14:02:03 51°22.636 2°43.231 23.4843 0.059366 0.31861 -3.020363
2011-07-27 14:03:03 51°22.641 2°43.253 23.482 0.059366 0.318599 -3.020363
2011-07-27 14:04:02 51°22.653 2°43.268 23.4988 0.059366 0.318594 -3.020363
2011-07-27 14:05:03 51°22.658 2°43.272 23.4867 0.059469 0.319156 -3.020363
2011-07-27 14:06:02 51°22.655 2°43.272 23.5002 0.059469 0.31915 -3.020363
2011-07-27 14:07:02 51°22.648 2°43.268 23.5092 0.059469 0.319134 -3.020363
2011-07-27 14:08:03 51°22.639 2°43.262 23.5068 0.059469 0.319123 -3.020363
2011-07-27 14:09:02 51°22.631 2°43.256 23.5063 0.059469 0.319112 -3.020363
2011-07-27 14:10:03 51°22.623 2°43.252 23.4923 0.059469 0.319101 -3.020363
2011-07-27 14:11:03 51°22.615 2°43.251 23.514 0.059469 0.31909 -3.020363
2011-07-27 14:12:02 51°22.608 2°43.253 23.5146 0.059469 0.319079 -3.020363
2011-07-27 14:13:03 51°22.61 2°43.274 23.5105 0.059469 0.319073 -3.020363
2011-07-27 14:14:02 51°22.623 2°43.291 23.5132 0.059469 0.319062 -3.020363
2011-07-27 14:15:02 51°22.633 2°43.292 23.5054 0.059469 0.319057 -3.020363
2011-07-27 14:16:02 51°22.634 2°43.287 23.5246 0.059469 0.319051 -3.020363
2011-07-27 14:17:02 51°22.628 2°43.282 23.5209 0.059469 0.319046 -3.020363
2011-07-27 14:18:02 51°22.617 2°43.273 23.527 0.059469 0.319035 -3.020363
2011-07-27 14:19:02 51°22.606 2°43.259 23.5224 0.059469 0.319013 -3.020363
2011-07-27 14:20:02 51°22.597 2°43.252 23.5173 0.059469 0.319002 -3.020363
2011-07-27 14:21:02 51°22.6 2°43.27 23.5187 0.059572 0.319558 -3.020363
2011-07-27 14:22:02 51°22.61 2°43.282 23.5281 0.059469 0.318969 -3.020363
2011-07-27 14:23:02 51°22.619 2°43.285 23.5229 0.059572 0.31953 -3.020363
2011-07-27 14:24:02 51°22.62 2°43.284 23.5246 0.059572 0.319525 -3.020363
2011-07-27 14:25:02 51°22.616 2°43.28 23.5301 0.059572 0.319514 -3.020363
2011-07-27 14:26:03 51°22.61 2°43.276 23.5206 0.059572 0.319503 -3.020363
2011-07-27 14:27:02 51°22.607 2°43.278 23.5429 0.059572 0.319492 -3.020363
2011-07-27 14:28:03 51°22.611 2°43.287 23.5324 0.059572 0.319475 -3.020363
2011-07-27 14:29:03 51°22.624 2°43.291 23.5314 0.059572 0.319464 -3.020363
2011-07-27 14:30:02 51°22.628 2°43.289 23.5445 0.059572 0.319448 -3.020363
2011-07-27 14:31:02 51°22.626 2°43.283 23.543 0.059572 0.319442 -3.020363
2011-07-27 14:32:02 51°22.619 2°43.276 23.5457 0.059572 0.319426 -3.020363
2011-07-27 14:33:02 51°22.608 2°43.266 23.5414 0.059572 0.319415 -3.020363
2011-07-27 14:34:02 51°22.597 2°43.253 23.5622 0.059572 0.319398 -3.020363
2011-07-27 14:35:02 51°22.587 2°43.244 23.5563 0.059572 0.319387 -3.020363
2011-07-27 14:36:02 51°22.591 2°43.271 23.5648 0.059572 0.319376 -3.020363
2011-07-27 14:37:03 51°22.606 2°43.287 23.5593 0.059572 0.319354 -3.020363
2011-07-27 14:38:03 51°22.614 2°43.295 23.5629 0.059674 0.319932 -3.020363
2011-07-27 14:39:03 51°22.616 2°43.304 23.5646 0.059572 0.319354 -3.020363
2011-07-27 14:40:03 51°22.62 2°43.32 23.5716 0.059674 0.319916 -3.020363
2011-07-27 14:41:02 51°22.629 2°43.334 23.5728 0.059674 0.31991 -3.020363
2011-07-27 14:42:03 51°22.638 2°43.338 23.5658 0.059674 0.319888 -3.020363
2011-07-27 14:43:02 51°22.64 2°43.336 23.5628 0.059674 0.319883 -3.020363
2011-07-27 14:44:02 51°22.636 2°43.33 23.5624 0.059674 0.319872 -3.020363
2011-07-27 14:45:02 51°22.632 2°43.325 23.5789 0.059674 0.319866 -3.020363
2011-07-27 14:46:03 51°22.638 2°43.332 23.5794 0.059674 0.31985 -3.020363
2011-07-27 14:47:03 51°22.651 2°43.347 23.5638 0.059674 0.319844 -3.020363
2011-07-27 14:48:03 51°22.666 2°43.368 23.5836 0.059674 0.319828 -3.020363
2011-07-27 14:49:02 51°22.681 2°43.397 23.5836 0.059674 0.319817 -3.020363
2011-07-27 14:50:03 51°22.696 2°43.425 23.5754 0.059674 0.319806 -3.020363
2011-07-27 14:51:02 51°22.704 2°43.435 23.5833 0.059674 0.319795 -3.020363
2011-07-27 14:52:02 51°22.706 2°43.436 23.5848 0.059674 0.319784 -3.020363
2011-07-27 14:53:03 51°22.7 2°43.431 23.5897 0.059674 0.319767 -3.020363
2011-07-27 14:54:02 51°22.693 2°43.429 23.5944 0.059674 0.319762 -3.020363
2011-07-27 14:55:03 51°22.722 2°43.479 23.603 0.059674 0.319767 -3.020363
2011-07-27 14:56:03 51°22.772 2°43.467 23.6042 0.059674 0.31974 -3.020363
2011-07-27 14:57:02 51°22.784 2°43.401 23.6072 0.059674 0.319718 -3.020363
2011-07-27 14:58:03 51°22.774 2°43.321 23.599 0.059674 0.319707 -3.020363
2011-07-27 14:59:02 51°22.755 2°43.218 23.6085 0.059674 0.319712 -3.020363
2011-07-27 15:00:02 51°22.718 2°43.138 23.6174 0.059777 0.320268 -3.020363
2011-07-27 15:01:02 51°22.681 2°43.088 23.6176 0.059777 0.320273 -3.020363
2011-07-27 15:02:03 51°22.648 2°43.044 23.6101 0.059777 0.320268 -3.020363
2011-07-27 15:03:02 51°22.622 2°43.005 23.6147 0.059777 0.320262 -3.020363
2011-07-27 15:04:03 51°22.594 2°42.963 23.6269 0.059777 0.320251 -3.020363
2011-07-27 15:05:02 51°22.546 2°42.967 23.6169 0.059777 0.320257 -3.020363
2011-07-27 15:06:02 51°22.53 2°43.015 23.6206 0.059777 0.320229 -3.020363
2011-07-27 15:07:03 51°22.538 2°43.055 23.6144 0.059777 0.320224 -3.020363
2011-07-27 15:08:02 51°22.554 2°43.095 23.6289 0.059777 0.320224 -3.020363
2011-07-27 15:09:02 51°22.571 2°43.13 23.6335 0.059777 0.320213 -3.020363
2011-07-27 15:10:02 51°22.597 2°43.167 23.6423 0.059777 0.320218 -3.020363
2011-07-27 15:11:03 51°22.615 2°43.209 23.6437 0.059777 0.320218 -3.020363
2011-07-27 15:12:02 51°22.588 2°43.251 23.6288 0.059777 0.320218 -3.020363
2011-07-27 15:13:03 51°22.538 2°43.23 23.6345 0.059777 0.320191 -3.020363
2011-07-27 15:14:02 51°22.499 2°43.162 23.6366 0.059777 0.320174 -3.020363
2011-07-27 15:15:03 51°22.466 2°43.079 23.6354 0.059777 0.320158 -3.020363
2011-07-27 15:16:02 51°22.444 2°43.01 23.6312 0.059777 0.320158 -3.020363
2011-07-27 15:17:02 51°22.428 2°42.953 23.6386 0.059777 0.320152 -3.020363
2011-07-27 15:18:03 51°22.415 2°42.906 23.6315 0.059777 0.320158 -3.020363
2011-07-27 15:19:02 51°22.405 2°42.867 23.6334 0.059777 0.320152 -3.020363
2011-07-27 15:20:02 51°22.394 2°42.833 23.6448 0.059777 0.320147 -3.020363
2011-07-27 15:21:03 51°22.383 2°42.803 23.6268 0.059777 0.320141 -3.020363
2011-07-27 15:22:02 51°22.372 2°42.761 23.6535 0.059777 0.320141 -3.020363
2011-07-27 15:23:02 51°22.328 2°42.693 23.6583 0.059777 0.320152 -3.020363
2011-07-27 15:24:02 51°22.229 2°42.726 23.6364 0.059777 0.320097 -3.020363
2011-07-27 15:25:02 51°22.106 2°42.882 23.6361 0.059777 0.320092 -3.020363
2011-07-27 15:26:02 51°21.965 2°43.107 23.6387 0.059777 0.320059 -3.020363
2011-07-27 15:27:03 51°21.818 2°43.345 23.6402 0.05988 0.320553 -3.020363
2011-07-27 15:28:02 51°21.669 2°43.566 23.662 0.05988 0.320531 -3.020363
2011-07-27 15:29:02 51°21.515 2°43.786 23.6573 0.05988 0.320482 -3.020363
2011-07-27 15:30:02 51°21.371 2°44.021 23.6666 0.05988 0.320421 -3.020363
2011-07-27 15:31:02 51°21.23 2°44.265 23.6537 0.05988 0.320361 -3.020363
2011-07-27 15:32:02 51°21.087 2°44.508 23.6477 0.05988 0.320284 -3.020363
2011-07-27 15:33:02 51°20.932 2°44.73 23.6697 0.05988 0.320218 -3.020363
2011-07-27 15:34:03 51°20.775 2°44.96 23.6855 0.05988 0.320135 -3.020363
2011-07-27 15:35:02 51°20.619 2°45.176 23.6888 0.05988 0.320075 -3.020363
2011-07-27 15:36:03 51°20.467 2°45.411 23.7025 0.05988 0.320048 -3.020363
2011-07-27 15:37:02 51°20.317 2°45.639 23.6894 0.059983 0.320541 -3.020363
2011-07-27 15:38:02 51°20.169 2°45.866 23.6982 0.059983 0.320481 -3.020363
2011-07-27 15:39:03 51°20.018 2°46.093 23.703 0.059983 0.320464 -3.020363
2011-07-27 15:40:02 51°19.894 2°46.337 23.7038 0.059983 0.320415 -3.020363
2011-07-27 15:41:02 51°19.772 2°46.6 23.6978 0.059983 0.320349 -3.020363
2011-07-27 15:42:02 51°19.649 2°46.861 23.6859 0.059983 0.320278 -3.020363
2011-07-27 15:43:03 51°19.517 2°47.122 23.6831 0.059983 0.320229 -3.020363
2011-07-27 15:44:02 51°19.394 2°47.377 23.6859 0.059983 0.320147 -3.020363
2011-07-27 15:45:03 51°19.262 2°47.635 23.7068 0.059983 0.320048 -3.020363
2011-07-27 15:46:02 51°19.137 2°47.888 23.7157 0.060086 0.320524 -3.020363
2011-07-27 15:47:03 51°19.005 2°48.146 23.7248 0.060086 0.320431 -3.020363
2011-07-27 15:48:02 51°18.882 2°48.399 23.6924 0.060086 0.320333 -3.020363
2011-07-27 15:49:02 51°18.754 2°48.651 23.7171 0.060086 0.32024 -3.020363
2011-07-27 15:50:03 51°18.624 2°48.906 23.7243 0.060086 0.320136 -3.020363
2011-07-27 15:51:02 51°18.501 2°49.154 23.7201 0.060086 0.320049 -3.020363
2011-07-27 15:52:03 51°18.366 2°49.407 23.7043 0.060086 0.319972 -3.020363
2011-07-27 15:53:02 51°18.242 2°49.662 23.7316 0.060188 0.320464 -3.020363
2011-07-27 15:54:03 51°18.133 2°49.943 23.7177 0.060188 0.320442 -3.020363
2011-07-27 15:55:02 51°18.026 2°50.216 23.7335 0.060188 0.320382 -3.020363
2011-07-27 15:56:02 51°17.909 2°50.488 23.7027 0.060188 0.320355 -3.020363
2011-07-27 15:57:02 51°17.814 2°50.772 23.7294 0.060188 0.320317 -3.020363
2011-07-27 15:58:02 51°17.719 2°51.057 23.7268 0.060188 0.320311 -3.020363
2011-07-27 15:59:02 51°17.617 2°51.335 23.7481 0.060188 0.320284 -3.020363
2011-07-27 16:00:02 51°17.523 2°51.622 23.752 0.060188 0.320235 -3.020363
2011-07-27 16:01:03 51°17.418 2°51.911 23.7421 0.060188 0.320213 -3.020363
2011-07-27 16:02:02 51°17.285 2°52.16 23.7449 0.060188 0.320202 -3.020363
2011-07-27 16:03:02 51°17.119 2°52.37 23.7464 0.060188 0.320213 -3.020363
2011-07-27 16:04:02 51°16.958 2°52.583 23.7294 0.060291 0.320737 -3.020363
2011-07-27 16:05:02 51°16.783 2°52.772 23.7499 0.060188 0.320159 -3.020363
2011-07-27 16:06:02 51°16.583 2°52.908 23.761 0.060291 0.320699 -3.020363
2011-07-27 16:07:02 51°16.376 2°53.007 23.7556 0.060291 0.320672 -3.020363
2011-07-27 16:08:03 51°16.17 2°53.121 23.7612 0.060291 0.320666 -3.020363
2011-07-27 16:09:03 51°15.977 2°53.269 23.7412 0.060291 0.320634 -3.020363
2011-07-27 16:10:03 51°15.796 2°53.439 23.7673 0.060291 0.320606 -3.020363
2011-07-27 16:11:02 51°15.618 2°53.61 23.7809 0.060291 0.320606 -3.020363
2011-07-27 16:12:02 51°15.459 2°53.823 23.7641 0.060291 0.320546 -3.020363
2011-07-27 16:13:02 51°15.296 2°54.033 23.7776 0.060291 0.320541 -3.020363
2011-07-27 16:14:02 51°15.143 2°54.255 23.7731 0.060291 0.320508 -3.020363
2011-07-27 16:15:03 51°14.978 2°54.468 23.7738 0.060291 0.320492 -3.020363
2011-07-27 16:16:02 51°14.806 2°54.653 23.7677 0.060291 0.320459 -3.020363
2011-07-27 16:17:03 51°14.64 2°54.86 23.7789 0.060291 0.320443 -3.020363
2011-07-27 16:18:02 51°14.482 2°55.06 23.7867 0.060291 0.320432 -3.020363
2011-07-27 16:19:03 51°14.321 2°55.238 23.7689 0.060291 0.320416 -3.020363
2011-07-27 16:20:02 51°14.196 2°55.357 23.7729 0.060291 0.320394 -3.020363
2011-07-27 16:21:03 51°14.068 2°55.456 23.7766 0.060394 0.320934 -3.020363
2011-07-27 16:22:04 51°13.953 2°55.539 23.774 0.060394 0.320917 -3.020363
2011-07-27 16:23:06 51°13.851 2°55.611 23.7798 0.060394 0.320901 -3.020363
2011-07-27 16:24:06 51°13.76 2°55.711 23.7945 0.060394 0.320885 -3.020363
2011-07-27 16:25:05 51°13.704 2°55.813 23.7824 0.060394 0.320857 -3.020363
2011-07-27 16:26:04 51°13.664 2°55.903 23.7831 0.060394 0.320847 -3.020363
2011-07-27 16:27:03 51°13.642 2°55.983 23.7857 0.060394 0.320825 -3.020363